sensor_id;sensor_type;location;lat;lon;timestamp;temperature;humidity
32965;DHT22;19317;48.226;11.686;2023-05-10T00:01:29;13.50;99.90
32965;DHT22;19317;48.226;11.686;2023-05-10T00:06:19;13.50;99.90
32965;DHT22;19317;48.226;11.686;2023-05-10T00:11:10;13.60;99.90
32965;DHT22;19317;48.226;11.686;2023-05-10T00:16:00;13.80;99.90
32965;DHT22;19317;48.226;11.686;2023-05-10T00:20:51;13.80;99.90
32965;DHT22;19317;48.226;11.686;2023-05-10T00:25:41;13.60;99.90
32965;DHT22;19317;48.226;11.686;2023-05-10T00:30:32;13.60;99.90
32965;DHT22;19317;48.226;11.686;2023-05-10T00:35:22;13.70;99.90
32965;DHT22;19317;48.226;11.686;2023-05-10T00:40:13;13.70;99.90
32965;DHT22;19317;48.226;11.686;2023-05-10T00:45:04;13.80;99.90
32965;DHT22;19317;48.226;11.686;2023-05-10T00:49:55;13.70;99.90
32965;DHT22;19317;48.226;11.686;2023-05-10T00:54:46;13.10;99.90
32965;DHT22;19317;48.226;11.686;2023-05-10T00:59:36;13.50;99.90
32965;DHT22;19317;48.226;11.686;2023-05-10T01:04:27;13.60;99.90
32965;DHT22;19317;48.226;11.686;2023-05-10T01:09:18;13.60;99.90
32965;DHT22;19317;48.226;11.686;2023-05-10T01:14:09;13.60;99.90
32965;DHT22;19317;48.226;11.686;2023-05-10T01:19:00;13.40;99.90
32965;DHT22;19317;48.226;11.686;2023-05-10T01:29:19;13.50;99.90
32965;DHT22;19317;48.226;11.686;2023-05-10T01:34:16;13.40;99.90
32965;DHT22;19317;48.226;11.686;2023-05-10T01:44:46;13.50;99.90
32965;DHT22;19317;48.226;11.686;2023-05-10T01:49:47;13.50;99.90
32965;DHT22;19317;48.226;11.686;2023-05-10T01:54:44;13.40;99.90
32965;DHT22;19317;48.226;11.686;2023-05-10T01:59:36;13.50;99.90
32965;DHT22;19317;48.226;11.686;2023-05-10T02:04:29;13.50;99.90
32965;DHT22;19317;48.226;11.686;2023-05-10T02:09:20;13.40;99.90
32965;DHT22;19317;48.226;11.686;2023-05-10T02:14:12;13.60;99.90
32965;DHT22;19317;48.226;11.686;2023-05-10T02:19:03;13.40;99.90
32965;DHT22;19317;48.226;11.686;2023-05-10T02:23:54;13.40;99.90
32965;DHT22;19317;48.226;11.686;2023-05-10T02:28:45;13.30;99.90
32965;DHT22;19317;48.226;11.686;2023-05-10T02:33:38;13.30;99.90
32965;DHT22;19317;48.226;11.686;2023-05-10T02:38:31;13.30;99.90
32965;DHT22;19317;48.226;11.686;2023-05-10T02:43:23;14.10;99.90
32965;DHT22;19317;48.226;11.686;2023-05-10T02:48:14;13.30;99.90
32965;DHT22;19317;48.226;11.686;2023-05-10T02:53:15;13.20;99.90
32965;DHT22;19317;48.226;11.686;2023-05-10T02:58:05;13.20;99.90
32965;DHT22;19317;48.226;11.686;2023-05-10T03:02:56;13.30;99.90
32965;DHT22;19317;48.226;11.686;2023-05-10T03:07:47;13.20;99.90
32965;DHT22;19317;48.226;11.686;2023-05-10T03:12:52;13.10;99.90
32965;DHT22;19317;48.226;11.686;2023-05-10T03:17:56;13.00;99.90
32965;DHT22;19317;48.226;11.686;2023-05-10T03:22:50;13.10;99.90
32965;DHT22;19317;48.226;11.686;2023-05-10T03:27:43;13.00;99.90
32965;DHT22;19317;48.226;11.686;2023-05-10T03:32:33;13.00;99.90
32965;DHT22;19317;48.226;11.686;2023-05-10T03:37:24;13.10;99.90
32965;DHT22;19317;48.226;11.686;2023-05-10T03:42:14;13.10;99.90
32965;DHT22;19317;48.226;11.686;2023-05-10T03:47:05;13.10;99.90
32965;DHT22;19317;48.226;11.686;2023-05-10T03:51:55;13.10;99.90
32965;DHT22;19317;48.226;11.686;2023-05-10T03:56:46;13.10;99.90
32965;DHT22;19317;48.226;11.686;2023-05-10T04:01:36;13.00;99.90
32965;DHT22;19317;48.226;11.686;2023-05-10T04:06:26;12.90;99.90
32965;DHT22;19317;48.226;11.686;2023-05-10T04:11:17;12.90;99.90
32965;DHT22;19317;48.226;11.686;2023-05-10T04:16:07;12.90;99.90
32965;DHT22;19317;48.226;11.686;2023-05-10T04:20:58;12.90;99.90
32965;DHT22;19317;48.226;11.686;2023-05-10T04:25:48;13.00;99.90
32965;DHT22;19317;48.226;11.686;2023-05-10T04:30:39;13.00;99.90
32965;DHT22;19317;48.226;11.686;2023-05-10T04:35:30;12.90;99.90
32965;DHT22;19317;48.226;11.686;2023-05-10T04:40:20;12.90;99.90
32965;DHT22;19317;48.226;11.686;2023-05-10T04:45:11;12.90;99.90
32965;DHT22;19317;48.226;11.686;2023-05-10T04:50:01;12.90;99.90
32965;DHT22;19317;48.226;11.686;2023-05-10T04:54:52;12.90;99.90
32965;DHT22;19317;48.226;11.686;2023-05-10T04:59:42;12.80;99.90
32965;DHT22;19317;48.226;11.686;2023-05-10T05:04:32;12.80;99.90
32965;DHT22;19317;48.226;11.686;2023-05-10T05:09:23;12.70;99.90
32965;DHT22;19317;48.226;11.686;2023-05-10T05:14:13;12.60;99.90
32965;DHT22;19317;48.226;11.686;2023-05-10T05:19:04;12.50;99.90
32965;DHT22;19317;48.226;11.686;2023-05-10T05:23:54;12.50;99.90
32965;DHT22;19317;48.226;11.686;2023-05-10T05:28:45;12.50;99.90
32965;DHT22;19317;48.226;11.686;2023-05-10T05:33:35;12.50;99.90
32965;DHT22;19317;48.226;11.686;2023-05-10T05:38:26;12.60;99.90
32965;DHT22;19317;48.226;11.686;2023-05-10T05:43:16;12.40;99.90
32965;DHT22;19317;48.226;11.686;2023-05-10T05:48:08;12.40;99.90
32965;DHT22;19317;48.226;11.686;2023-05-10T05:52:58;12.40;99.90
32965;DHT22;19317;48.226;11.686;2023-05-10T05:57:49;12.40;99.90
32965;DHT22;19317;48.226;11.686;2023-05-10T06:02:39;12.30;99.90
32965;DHT22;19317;48.226;11.686;2023-05-10T06:07:30;12.20;99.90
32965;DHT22;19317;48.226;11.686;2023-05-10T06:12:20;12.40;99.90
32965;DHT22;19317;48.226;11.686;2023-05-10T06:17:10;12.30;99.90
32965;DHT22;19317;48.226;11.686;2023-05-10T06:22:01;12.30;99.90
32965;DHT22;19317;48.226;11.686;2023-05-10T06:26:51;12.40;99.90
32965;DHT22;19317;48.226;11.686;2023-05-10T06:31:42;12.30;99.90
32965;DHT22;19317;48.226;11.686;2023-05-10T06:36:32;12.30;99.90
32965;DHT22;19317;48.226;11.686;2023-05-10T06:41:23;12.40;99.90
32965;DHT22;19317;48.226;11.686;2023-05-10T06:46:13;12.40;99.90
32965;DHT22;19317;48.226;11.686;2023-05-10T06:51:03;12.50;99.90
32965;DHT22;19317;48.226;11.686;2023-05-10T06:55:54;12.50;99.90
32965;DHT22;19317;48.226;11.686;2023-05-10T07:00:44;12.60;99.90
32965;DHT22;19317;48.226;11.686;2023-05-10T07:05:35;12.80;99.90
32965;DHT22;19317;48.226;11.686;2023-05-10T07:10:25;12.90;99.90
32965;DHT22;19317;48.226;11.686;2023-05-10T07:15:16;13.00;99.90
32965;DHT22;19317;48.226;11.686;2023-05-10T07:20:07;13.10;99.90
32965;DHT22;19317;48.226;11.686;2023-05-10T07:24:57;13.20;99.90
32965;DHT22;19317;48.226;11.686;2023-05-10T07:29:48;13.40;99.90
32965;DHT22;19317;48.226;11.686;2023-05-10T07:34:38;13.10;99.90
32965;DHT22;19317;48.226;11.686;2023-05-10T07:39:29;13.10;99.90
32965;DHT22;19317;48.226;11.686;2023-05-10T07:44:19;13.20;99.90
32965;DHT22;19317;48.226;11.686;2023-05-10T07:49:10;13.50;99.90
32965;DHT22;19317;48.226;11.686;2023-05-10T07:54:00;13.60;99.90
32965;DHT22;19317;48.226;11.686;2023-05-10T07:58:51;13.50;99.90
32965;DHT22;19317;48.226;11.686;2023-05-10T08:03:41;13.50;99.90
32965;DHT22;19317;48.226;11.686;2023-05-10T08:08:32;13.80;99.90
32965;DHT22;19317;48.226;11.686;2023-05-10T08:13:22;14.00;99.90
32965;DHT22;19317;48.226;11.686;2023-05-10T08:18:13;14.20;99.90
32965;DHT22;19317;48.226;11.686;2023-05-10T08:23:03;14.60;99.90
32965;DHT22;19317;48.226;11.686;2023-05-10T08:27:54;14.60;99.90
32965;DHT22;19317;48.226;11.686;2023-05-10T08:32:44;14.70;99.90
32965;DHT22;19317;48.226;11.686;2023-05-10T08:37:35;14.70;99.90
32965;DHT22;19317;48.226;11.686;2023-05-10T08:42:28;14.30;99.90
32965;DHT22;19317;48.226;11.686;2023-05-10T08:47:20;14.30;99.90
32965;DHT22;19317;48.226;11.686;2023-05-10T08:52:13;14.30;99.90
32965;DHT22;19317;48.226;11.686;2023-05-10T08:57:05;14.40;99.90
32965;DHT22;19317;48.226;11.686;2023-05-10T09:01:58;14.60;99.90
32965;DHT22;19317;48.226;11.686;2023-05-10T09:06:48;14.90;99.90
32965;DHT22;19317;48.226;11.686;2023-05-10T09:11:39;14.90;99.90
32965;DHT22;19317;48.226;11.686;2023-05-10T09:16:29;15.10;99.90
32965;DHT22;19317;48.226;11.686;2023-05-10T09:21:20;15.10;99.90
32965;DHT22;19317;48.226;11.686;2023-05-10T09:26:10;14.90;99.90
32965;DHT22;19317;48.226;11.686;2023-05-10T09:31:01;14.80;99.90
32965;DHT22;19317;48.226;11.686;2023-05-10T09:35:52;15.00;99.90
32965;DHT22;19317;48.226;11.686;2023-05-10T09:40:51;15.00;99.90
32965;DHT22;19317;48.226;11.686;2023-05-10T09:45:42;14.80;99.90
32965;DHT22;19317;48.226;11.686;2023-05-10T09:50:32;14.60;99.90
32965;DHT22;19317;48.226;11.686;2023-05-10T09:55:25;14.30;99.90
32965;DHT22;19317;48.226;11.686;2023-05-10T10:00:19;13.90;99.90
32965;DHT22;19317;48.226;11.686;2023-05-10T10:05:11;13.90;99.90
32965;DHT22;19317;48.226;11.686;2023-05-10T10:10:02;14.20;99.90
32965;DHT22;19317;48.226;11.686;2023-05-10T10:14:53;14.30;99.90
32965;DHT22;19317;48.226;11.686;2023-05-10T10:19:44;14.40;99.90
32965;DHT22;19317;48.226;11.686;2023-05-10T10:24:35;14.50;99.90
32965;DHT22;19317;48.226;11.686;2023-05-10T10:29:39;14.60;99.90
32965;DHT22;19317;48.226;11.686;2023-05-10T10:34:31;15.00;99.90
32965;DHT22;19317;48.226;11.686;2023-05-10T10:39:23;15.10;99.90
32965;DHT22;19317;48.226;11.686;2023-05-10T10:49:14;15.10;99.90
32965;DHT22;19317;48.226;11.686;2023-05-10T10:54:09;15.20;99.90
32965;DHT22;19317;48.226;11.686;2023-05-10T10:59:00;15.00;99.90
32965;DHT22;19317;48.226;11.686;2023-05-10T11:08:51;15.10;99.90
32965;DHT22;19317;48.226;11.686;2023-05-10T11:13:43;15.20;99.90
32965;DHT22;19317;48.226;11.686;2023-05-10T11:18:37;15.30;99.90
32965;DHT22;19317;48.226;11.686;2023-05-10T11:23:49;15.30;99.90
32965;DHT22;19317;48.226;11.686;2023-05-10T11:28:45;15.70;99.90
32965;DHT22;19317;48.226;11.686;2023-05-10T11:33:46;15.40;99.90
32965;DHT22;19317;48.226;11.686;2023-05-10T11:38:36;15.70;99.90
32965;DHT22;19317;48.226;11.686;2023-05-10T11:43:27;15.80;99.90
32965;DHT22;19317;48.226;11.686;2023-05-10T11:48:17;15.40;99.90
32965;DHT22;19317;48.226;11.686;2023-05-10T11:53:08;15.20;99.90
32965;DHT22;19317;48.226;11.686;2023-05-10T11:58:00;15.20;99.90
32965;DHT22;19317;48.226;11.686;2023-05-10T12:02:51;14.80;99.90
32965;DHT22;19317;48.226;11.686;2023-05-10T12:07:42;14.80;99.90
32965;DHT22;19317;48.226;11.686;2023-05-10T12:12:40;14.70;99.90
32965;DHT22;19317;48.226;11.686;2023-05-10T12:17:30;14.20;99.90
32965;DHT22;19317;48.226;11.686;2023-05-10T12:22:21;14.00;99.90
32965;DHT22;19317;48.226;11.686;2023-05-10T12:27:11;14.10;99.90
32965;DHT22;19317;48.226;11.686;2023-05-10T12:32:02;14.00;99.90
32965;DHT22;19317;48.226;11.686;2023-05-10T12:36:53;14.00;99.90
32965;DHT22;19317;48.226;11.686;2023-05-10T12:41:44;13.90;99.90
32965;DHT22;19317;48.226;11.686;2023-05-10T12:46:34;13.80;99.90
32965;DHT22;19317;48.226;11.686;2023-05-10T12:51:25;13.50;99.90
32965;DHT22;19317;48.226;11.686;2023-05-10T12:56:15;13.40;99.90
32965;DHT22;19317;48.226;11.686;2023-05-10T13:01:06;13.30;99.90
32965;DHT22;19317;48.226;11.686;2023-05-10T13:05:56;13.30;99.90
32965;DHT22;19317;48.226;11.686;2023-05-10T13:10:47;13.00;99.90
32965;DHT22;19317;48.226;11.686;2023-05-10T13:15:37;13.10;99.90
32965;DHT22;19317;48.226;11.686;2023-05-10T13:20:28;13.10;99.90
32965;DHT22;19317;48.226;11.686;2023-05-10T13:25:18;13.00;99.90
32965;DHT22;19317;48.226;11.686;2023-05-10T13:30:09;13.10;99.90
32965;DHT22;19317;48.226;11.686;2023-05-10T13:35:00;13.10;99.90
32965;DHT22;19317;48.226;11.686;2023-05-10T13:39:51;13.10;99.90
32965;DHT22;19317;48.226;11.686;2023-05-10T13:44:41;13.10;99.90
32965;DHT22;19317;48.226;11.686;2023-05-10T13:49:32;13.40;99.90
32965;DHT22;19317;48.226;11.686;2023-05-10T13:54:24;13.30;99.90
32965;DHT22;19317;48.226;11.686;2023-05-10T13:59:14;13.00;99.90
32965;DHT22;19317;48.226;11.686;2023-05-10T14:04:05;13.10;99.90
32965;DHT22;19317;48.226;11.686;2023-05-10T14:08:55;13.10;99.90
32965;DHT22;19317;48.226;11.686;2023-05-10T14:13:45;13.00;99.90
32965;DHT22;19317;48.226;11.686;2023-05-10T14:18:36;13.00;99.90
32965;DHT22;19317;48.226;11.686;2023-05-10T14:23:26;13.20;99.90
32965;DHT22;19317;48.226;11.686;2023-05-10T14:28:17;13.20;99.90
32965;DHT22;19317;48.226;11.686;2023-05-10T14:33:07;13.20;99.90
32965;DHT22;19317;48.226;11.686;2023-05-10T14:37:58;13.00;99.90
32965;DHT22;19317;48.226;11.686;2023-05-10T14:42:49;13.00;99.90
32965;DHT22;19317;48.226;11.686;2023-05-10T14:47:39;12.80;99.90
32965;DHT22;19317;48.226;11.686;2023-05-10T14:52:30;12.90;99.90
32965;DHT22;19317;48.226;11.686;2023-05-10T14:57:20;12.90;99.90
32965;DHT22;19317;48.226;11.686;2023-05-10T15:02:11;12.70;99.90
32965;DHT22;19317;48.226;11.686;2023-05-10T15:07:01;12.60;99.90
32965;DHT22;19317;48.226;11.686;2023-05-10T15:11:52;12.40;99.90
32965;DHT22;19317;48.226;11.686;2023-05-10T15:16:42;12.40;99.90
32965;DHT22;19317;48.226;11.686;2023-05-10T15:21:33;12.30;99.90
32965;DHT22;19317;48.226;11.686;2023-05-10T15:26:23;12.10;99.90
32965;DHT22;19317;48.226;11.686;2023-05-10T15:31:14;12.10;99.90
32965;DHT22;19317;48.226;11.686;2023-05-10T15:36:04;11.90;99.90
32965;DHT22;19317;48.226;11.686;2023-05-10T15:40:56;12.00;99.90
32965;DHT22;19317;48.226;11.686;2023-05-10T15:45:47;12.00;99.90
32965;DHT22;19317;48.226;11.686;2023-05-10T15:50:37;12.00;99.90
32965;DHT22;19317;48.226;11.686;2023-05-10T15:55:27;12.10;99.90
32965;DHT22;19317;48.226;11.686;2023-05-10T16:00:18;12.10;99.90
32965;DHT22;19317;48.226;11.686;2023-05-10T16:05:09;12.00;99.90
32965;DHT22;19317;48.226;11.686;2023-05-10T16:09:59;12.00;99.90
32965;DHT22;19317;48.226;11.686;2023-05-10T16:14:50;12.00;99.90
32965;DHT22;19317;48.226;11.686;2023-05-10T16:19:40;11.90;99.90
32965;DHT22;19317;48.226;11.686;2023-05-10T16:24:31;11.70;99.90
32965;DHT22;19317;48.226;11.686;2023-05-10T16:29:21;11.70;99.90
32965;DHT22;19317;48.226;11.686;2023-05-10T16:34:12;11.70;99.90
32965;DHT22;19317;48.226;11.686;2023-05-10T16:39:02;11.60;99.90
32965;DHT22;19317;48.226;11.686;2023-05-10T16:43:53;11.60;99.90
32965;DHT22;19317;48.226;11.686;2023-05-10T16:48:44;11.60;99.90
32965;DHT22;19317;48.226;11.686;2023-05-10T16:53:35;11.50;99.90
32965;DHT22;19317;48.226;11.686;2023-05-10T16:58:25;11.50;99.90
32965;DHT22;19317;48.226;11.686;2023-05-10T17:03:15;11.40;99.90
32965;DHT22;19317;48.226;11.686;2023-05-10T17:08:06;11.40;99.90
32965;DHT22;19317;48.226;11.686;2023-05-10T17:12:57;11.30;99.90
32965;DHT22;19317;48.226;11.686;2023-05-10T17:17:47;11.20;99.90
32965;DHT22;19317;48.226;11.686;2023-05-10T17:22:37;11.30;99.90
32965;DHT22;19317;48.226;11.686;2023-05-10T17:27:28;11.40;99.90
32965;DHT22;19317;48.226;11.686;2023-05-10T17:32:18;11.40;99.90
32965;DHT22;19317;48.226;11.686;2023-05-10T17:42:37;11.30;99.90
32965;DHT22;19317;48.226;11.686;2023-05-10T17:47:27;11.30;99.90
32965;DHT22;19317;48.226;11.686;2023-05-10T17:52:18;11.10;99.90
32965;DHT22;19317;48.226;11.686;2023-05-10T17:57:08;11.00;99.90
32965;DHT22;19317;48.226;11.686;2023-05-10T18:02:01;10.90;99.90
32965;DHT22;19317;48.226;11.686;2023-05-10T18:06:51;10.90;99.90
32965;DHT22;19317;48.226;11.686;2023-05-10T18:11:42;10.80;99.90
32965;DHT22;19317;48.226;11.686;2023-05-10T18:16:32;10.70;99.90
32965;DHT22;19317;48.226;11.686;2023-05-10T18:21:23;10.70;99.90
32965;DHT22;19317;48.226;11.686;2023-05-10T18:26:13;10.60;99.90
32965;DHT22;19317;48.226;11.686;2023-05-10T18:31:04;10.50;99.90
32965;DHT22;19317;48.226;11.686;2023-05-10T18:35:54;10.50;99.90
32965;DHT22;19317;48.226;11.686;2023-05-10T18:40:45;10.40;99.90
32965;DHT22;19317;48.226;11.686;2023-05-10T18:45:35;10.40;99.90
32965;DHT22;19317;48.226;11.686;2023-05-10T18:50:25;10.50;99.90
32965;DHT22;19317;48.226;11.686;2023-05-10T18:55:16;10.40;99.90
32965;DHT22;19317;48.226;11.686;2023-05-10T19:00:08;10.50;99.90
32965;DHT22;19317;48.226;11.686;2023-05-10T19:04:59;10.60;99.90
32965;DHT22;19317;48.226;11.686;2023-05-10T19:09:49;10.60;99.90
32965;DHT22;19317;48.226;11.686;2023-05-10T19:14:40;10.60;99.90
32965;DHT22;19317;48.226;11.686;2023-05-10T19:19:30;10.50;99.90
32965;DHT22;19317;48.226;11.686;2023-05-10T19:24:21;10.40;99.90
32965;DHT22;19317;48.226;11.686;2023-05-10T19:29:11;10.60;99.90
32965;DHT22;19317;48.226;11.686;2023-05-10T19:34:01;10.50;99.90
32965;DHT22;19317;48.226;11.686;2023-05-10T19:38:52;10.50;99.90
32965;DHT22;19317;48.226;11.686;2023-05-10T19:43:42;10.50;99.90
32965;DHT22;19317;48.226;11.686;2023-05-10T19:48:33;10.40;99.90
32965;DHT22;19317;48.226;11.686;2023-05-10T19:53:23;10.50;99.90
32965;DHT22;19317;48.226;11.686;2023-05-10T19:58:14;10.50;99.90
32965;DHT22;19317;48.226;11.686;2023-05-10T20:03:04;10.40;99.90
32965;DHT22;19317;48.226;11.686;2023-05-10T20:07:55;10.20;99.90
32965;DHT22;19317;48.226;11.686;2023-05-10T20:12:47;10.30;99.90
32965;DHT22;19317;48.226;11.686;2023-05-10T20:17:37;10.30;99.90
32965;DHT22;19317;48.226;11.686;2023-05-10T20:22:28;10.30;99.90
32965;DHT22;19317;48.226;11.686;2023-05-10T20:27:18;10.20;99.90
32965;DHT22;19317;48.226;11.686;2023-05-10T20:32:09;10.10;99.90
32965;DHT22;19317;48.226;11.686;2023-05-10T20:36:59;10.20;99.90
32965;DHT22;19317;48.226;11.686;2023-05-10T20:41:50;10.00;99.90
32965;DHT22;19317;48.226;11.686;2023-05-10T20:46:40;10.10;99.90
32965;DHT22;19317;48.226;11.686;2023-05-10T20:51:31;10.10;99.90
32965;DHT22;19317;48.226;11.686;2023-05-10T20:56:21;10.20;99.90
32965;DHT22;19317;48.226;11.686;2023-05-10T21:01:12;10.00;99.90
32965;DHT22;19317;48.226;11.686;2023-05-10T21:06:02;10.10;99.90
32965;DHT22;19317;48.226;11.686;2023-05-10T21:10:53;10.10;99.90
32965;DHT22;19317;48.226;11.686;2023-05-10T21:15:43;10.10;99.90
32965;DHT22;19317;48.226;11.686;2023-05-10T21:20:34;10.10;99.90
32965;DHT22;19317;48.226;11.686;2023-05-10T21:25:24;10.00;99.90
32965;DHT22;19317;48.226;11.686;2023-05-10T21:30:15;10.10;99.90
32965;DHT22;19317;48.226;11.686;2023-05-10T21:35:06;10.20;99.90
32965;DHT22;19317;48.226;11.686;2023-05-10T21:39:56;10.20;99.90
32965;DHT22;19317;48.226;11.686;2023-05-10T21:44:47;10.00;99.90
32965;DHT22;19317;48.226;11.686;2023-05-10T21:49:37;10.10;99.90
32965;DHT22;19317;48.226;11.686;2023-05-10T21:54:27;10.00;99.90
32965;DHT22;19317;48.226;11.686;2023-05-10T21:59:18;10.00;99.90
32965;DHT22;19317;48.226;11.686;2023-05-10T22:04:08;10.00;99.90
32965;DHT22;19317;48.226;11.686;2023-05-10T22:08:59;10.00;99.90
32965;DHT22;19317;48.226;11.686;2023-05-10T22:13:49;9.90;99.90
32965;DHT22;19317;48.226;11.686;2023-05-10T22:18:40;9.90;99.90
32965;DHT22;19317;48.226;11.686;2023-05-10T22:23:30;9.90;99.90
32965;DHT22;19317;48.226;11.686;2023-05-10T22:28:21;9.90;99.90
32965;DHT22;19317;48.226;11.686;2023-05-10T22:33:11;9.80;99.90
32965;DHT22;19317;48.226;11.686;2023-05-10T22:38:02;9.80;99.90
32965;DHT22;19317;48.226;11.686;2023-05-10T22:42:52;9.80;99.90
32965;DHT22;19317;48.226;11.686;2023-05-10T22:47:42;9.70;99.90
32965;DHT22;19317;48.226;11.686;2023-05-10T22:52:33;9.70;99.90
32965;DHT22;19317;48.226;11.686;2023-05-10T22:57:24;9.80;99.90
32965;DHT22;19317;48.226;11.686;2023-05-10T23:02:15;9.70;99.90
32965;DHT22;19317;48.226;11.686;2023-05-10T23:07:05;9.70;99.90
32965;DHT22;19317;48.226;11.686;2023-05-10T23:11:56;9.60;99.90
32965;DHT22;19317;48.226;11.686;2023-05-10T23:16:46;9.60;99.90
32965;DHT22;19317;48.226;11.686;2023-05-10T23:21:36;9.60;99.90
32965;DHT22;19317;48.226;11.686;2023-05-10T23:26:27;9.40;99.90
32965;DHT22;19317;48.226;11.686;2023-05-10T23:31:17;9.40;99.90
32965;DHT22;19317;48.226;11.686;2023-05-10T23:36:08;9.50;99.90
32965;DHT22;19317;48.226;11.686;2023-05-10T23:40:58;9.40;99.90
32965;DHT22;19317;48.226;11.686;2023-05-10T23:45:56;9.40;99.90
32965;DHT22;19317;48.226;11.686;2023-05-10T23:50:47;9.40;99.90
32965;DHT22;19317;48.226;11.686;2023-05-10T23:55:37;9.50;99.90
